Aérodrome :
LOGIN :

S'inscrire | Disclaimer

   EN    FR    IT 

 










Légende :    VFR   VFR Marginal   IFR   IFR Intensif   IFR Très Intensif
Visi : 
Plafond : 
>= 8 km
>= 3000ft
5 à 8 km
1000 à 3000 ft
1500m à 5 km
500 à 1000 ft
800 à 1500m
200 à 500 ft
< 800m
< 200 ft
Symboles :   Orages  Brouillard  Fortes neiges  Fortes précipitations  Vent > 20 kt
SIGMETs :   Divers  Orages  Givrage  Turbulence  Onde Orograph.  Cendres Volcan.






- Altitude de l'aérodrome : 1411 ft
- Code IATA : ZHI


LSZG - Grenchen

DERNIER METAR :
  • 041520Z 09002KT 9999 -DZ FEW006 BKN055 16/14 Q1014 NOSIG

METARs EXPIRÉS :
  • 041450Z 09001KT 8000 -RA FEW008 BKN060 15/13 Q1014 NOSIG
  • 041420Z 00000KT 8000 -RA FEW008 BKN060 15/14 Q1014 NOSIG
  • 041350Z VRB01KT 7000 -RA FEW008 BKN075 16/14 Q1014 NOSIG
  • 041320Z VRB02KT 9999 -RA FEW008 BKN075 16/14 Q1014 NOSIG
  • 041250Z 08002KT 9999 -RA FEW008 BKN075 15/13 Q1014 NOSIG

TAF TAF LSZG
Valide du 04 à 15h jusqu'au 05 à 00h UTC


041425Z 0415/0424 VRB02KT 9999 -RA FEW008 BKN010 OVC018
TEMPO 0415/0418 4500 RA
BECMG 0421/0424 BKN020
ATIS : +41 32 396 96 33



MET'MAP, la Météo Aéronautique d'un coup d'oeil ! - Copyright ORBIFLY Décembre 2007 - Disclaimer

ORBIFLY MET'MAP TEAM :

Programmation & Développement : Alexandra Zaïnal
Sur une idée originale de : Baudouin d'Aumeries
Assistance à la programmation : Marc-Olivier Méhu
Soutien technique & logistique : Manuel Goepfert

Contact : metmap@orbifly.com




SOURCES & CREDITS :

   NOAA